Terminal Aerodrome Forecast
Issued by NWS Boston, MA

Home | Current Version | Previous Version | Text Only | Print | Product List | Glossary On
Versions: 1 2 3 4 5 6 7 8 9 10 11 12 13 14 15 16 17 18 19 20 21 22 23 24 25 26 27 28 29 30 31 32 33 34 35 36 37 38 39 40 41 42 43 44 45 46 47 48 49 50
000
FTUS41 KBOX 261738
TAFBOS
TAF
KBOS 261738Z 2618/2724 02012KT 6SM -SN OVC020
     FM262100 04015G24KT 3SM -SN OVC015
     FM270000 04020KT 1/2SM SN FG OVC008
     FM270300 04023G36KT 1/2SM SN FG OVC003
     FM270700 03027G47KT 1/4SM +SN BLSN OVC003 WS020/03055KT
     FM271800 01032G53KT 1/2SM SN BLSN OVC003 WS020/03055KT=

USA.gov is the U.S. government's official web portal to all federal, state and local government web resources and services.